sensor_id;sensor_type;location;lat;lon;timestamp;pressure;altitude;pressure_sealevel;temperature;humidity
51468;BME280;37545;45.302;-122.946;2022-11-25T00:01:59;101744.81;;;7.10;100.00
51468;BME280;37545;45.302;-122.946;2022-11-25T00:04:28;101745.19;;;7.16;100.00
51468;BME280;37545;45.302;-122.946;2022-11-25T00:07:02;101742.09;;;7.22;100.00
51468;BME280;37545;45.302;-122.946;2022-11-25T00:09:31;101747.25;;;7.22;100.00
51468;BME280;37545;45.302;-122.946;2022-11-25T00:11:59;101744.69;;;7.22;100.00
51468;BME280;37545;45.302;-122.946;2022-11-25T00:14:30;101749.84;;;7.22;100.00
51468;BME280;37545;45.302;-122.946;2022-11-25T00:17:00;101738.28;;;7.15;100.00
51468;BME280;37545;45.302;-122.946;2022-11-25T00:19:29;101733.38;;;7.05;100.00
51468;BME280;37545;45.302;-122.946;2022-11-25T00:21:59;101737.53;;;7.03;100.00
51468;BME280;37545;45.302;-122.946;2022-11-25T00:24:27;101747.22;;;7.07;100.00
51468;BME280;37545;45.302;-122.946;2022-11-25T00:26:58;101738.72;;;7.08;100.00
51468;BME280;37545;45.302;-122.946;2022-11-25T00:29:32;101747.31;;;7.08;100.00
51468;BME280;37545;45.302;-122.946;2022-11-25T00:32:00;101743.75;;;7.06;100.00
51468;BME280;37545;45.302;-122.946;2022-11-25T00:34:29;101732.94;;;6.97;100.00
51468;BME280;37545;45.302;-122.946;2022-11-25T00:36:58;101726.53;;;6.90;100.00
51468;BME280;37545;45.302;-122.946;2022-11-25T00:39:27;101729.53;;;6.83;100.00
51468;BME280;37545;45.302;-122.946;2022-11-25T00:41:56;101728.44;;;6.80;100.00
51468;BME280;37545;45.302;-122.946;2022-11-25T00:44:45;101731.00;;;6.80;100.00
51468;BME280;37545;45.302;-122.946;2022-11-25T00:47:15;101729.16;;;6.77;100.00
51468;BME280;37545;45.302;-122.946;2022-11-25T00:49:45;101733.03;;;6.70;100.00
51468;BME280;37545;45.302;-122.946;2022-11-25T00:52:17;101733.56;;;6.65;100.00
51468;BME280;37545;45.302;-122.946;2022-11-25T00:54:47;101728.41;;;6.65;100.00
51468;BME280;37545;45.302;-122.946;2022-11-25T00:57:20;101731.44;;;6.72;100.00
51468;BME280;37545;45.302;-122.946;2022-11-25T00:59:57;101722.13;;;6.75;100.00
51468;BME280;37545;45.302;-122.946;2022-11-25T01:02:28;101721.44;;;6.77;100.00
51468;BME280;37545;45.302;-122.946;2022-11-25T01:04:57;101726.56;;;6.77;100.00
51468;BME280;37545;45.302;-122.946;2022-11-25T01:07:26;101725.00;;;6.79;100.00
51468;BME280;37545;45.302;-122.946;2022-11-25T01:09:54;101721.00;;;6.84;100.00
51468;BME280;37545;45.302;-122.946;2022-11-25T01:12:26;101701.66;;;6.76;100.00
51468;BME280;37545;45.302;-122.946;2022-11-25T01:14:56;101708.56;;;6.77;100.00
51468;BME280;37545;45.302;-122.946;2022-11-25T01:17:25;101720.44;;;6.75;100.00
51468;BME280;37545;45.302;-122.946;2022-11-25T01:19:53;101712.72;;;6.75;100.00
51468;BME280;37545;45.302;-122.946;2022-11-25T01:22:22;101717.09;;;6.76;100.00
51468;BME280;37545;45.302;-122.946;2022-11-25T01:24:51;101710.97;;;6.74;100.00
51468;BME280;37545;45.302;-122.946;2022-11-25T01:27:19;101722.25;;;6.76;100.00
51468;BME280;37545;45.302;-122.946;2022-11-25T01:29:56;101717.44;;;6.82;100.00
51468;BME280;37545;45.302;-122.946;2022-11-25T01:32:25;101725.38;;;6.85;100.00
51468;BME280;37545;45.302;-122.946;2022-11-25T01:34:53;101721.38;;;6.90;100.00
51468;BME280;37545;45.302;-122.946;2022-11-25T01:37:22;101724.13;;;6.93;100.00
51468;BME280;37545;45.302;-122.946;2022-11-25T01:39:51;101719.19;;;6.97;100.00
51468;BME280;37545;45.302;-122.946;2022-11-25T01:42:19;101720.16;;;6.99;100.00
51468;BME280;37545;45.302;-122.946;2022-11-25T01:47:57;101717.47;;;6.97;100.00
51468;BME280;37545;45.302;-122.946;2022-11-25T01:50:28;101722.63;;;6.97;100.00
51468;BME280;37545;45.302;-122.946;2022-11-25T01:53:00;101731.22;;;6.98;100.00
51468;BME280;37545;45.302;-122.946;2022-11-25T01:55:30;101726.91;;;6.97;100.00
51468;BME280;37545;45.302;-122.946;2022-11-25T01:58:05;101732.03;;;6.97;100.00
51468;BME280;37545;45.302;-122.946;2022-11-25T02:00:33;101736.22;;;6.95;100.00
51468;BME280;37545;45.302;-122.946;2022-11-25T02:03:05;101745.69;;;6.96;100.00
51468;BME280;37545;45.302;-122.946;2022-11-25T02:05:41;101753.50;;;6.97;100.00
51468;BME280;37545;45.302;-122.946;2022-11-25T02:08:15;101754.38;;;6.98;100.00
51468;BME280;37545;45.302;-122.946;2022-11-25T02:10:44;101750.13;;;6.98;100.00
51468;BME280;37545;45.302;-122.946;2022-11-25T02:13:22;101760.53;;;7.00;100.00
51468;BME280;37545;45.302;-122.946;2022-11-25T02:15:51;101753.69;;;7.00;100.00
51468;BME280;37545;45.302;-122.946;2022-11-25T02:18:21;101753.69;;;7.00;100.00
51468;BME280;37545;45.302;-122.946;2022-11-25T02:20:50;101757.13;;;7.01;100.00
51468;BME280;37545;45.302;-122.946;2022-11-25T02:23:35;101761.34;;;6.99;100.00
51468;BME280;37545;45.302;-122.946;2022-11-25T02:26:09;101757.06;;;6.99;100.00
51468;BME280;37545;45.302;-122.946;2022-11-25T02:28:41;101757.94;;;7.00;100.00
51468;BME280;37545;45.302;-122.946;2022-11-25T02:31:10;101757.78;;;6.97;100.00
51468;BME280;37545;45.302;-122.946;2022-11-25T02:33:38;101771.41;;;6.96;100.00
51468;BME280;37545;45.302;-122.946;2022-11-25T02:36:11;101769.66;;;6.95;100.00
51468;BME280;37545;45.302;-122.946;2022-11-25T02:38:48;101759.44;;;6.96;100.00
51468;BME280;37545;45.302;-122.946;2022-11-25T02:41:21;101752.25;;;6.90;100.00
51468;BME280;37545;45.302;-122.946;2022-11-25T02:43:52;101749.50;;;6.87;100.00
51468;BME280;37545;45.302;-122.946;2022-11-25T02:46:25;101741.31;;;6.80;100.00
51468;BME280;37545;45.302;-122.946;2022-11-25T02:48:54;101742.66;;;6.88;100.00
51468;BME280;37545;45.302;-122.946;2022-11-25T02:51:26;101741.06;;;6.90;100.00
51468;BME280;37545;45.302;-122.946;2022-11-25T02:53:55;101741.97;;;6.90;100.00
51468;BME280;37545;45.302;-122.946;2022-11-25T02:56:27;101751.25;;;6.88;100.00
51468;BME280;37545;45.302;-122.946;2022-11-25T02:58:56;101750.50;;;6.89;100.00
51468;BME280;37545;45.302;-122.946;2022-11-25T03:01:25;101740.81;;;6.85;100.00
51468;BME280;37545;45.302;-122.946;2022-11-25T03:03:53;101745.66;;;6.81;100.00
51468;BME280;37545;45.302;-122.946;2022-11-25T03:06:24;101748.75;;;6.75;100.00
51468;BME280;37545;45.302;-122.946;2022-11-25T03:08:53;101756.09;;;6.69;100.00
51468;BME280;37545;45.302;-122.946;2022-11-25T03:11:22;101756.88;;;6.68;100.00
51468;BME280;37545;45.302;-122.946;2022-11-25T03:14:13;101764.03;;;6.59;100.00
51468;BME280;37545;45.302;-122.946;2022-11-25T03:16:41;101770.00;;;6.44;100.00
51468;BME280;37545;45.302;-122.946;2022-11-25T03:19:10;101777.91;;;6.34;100.00
51468;BME280;37545;45.302;-122.946;2022-11-25T03:21:39;101768.94;;;6.27;100.00
51468;BME280;37545;45.302;-122.946;2022-11-25T03:24:12;101765.47;;;6.27;100.00
51468;BME280;37545;45.302;-122.946;2022-11-25T03:26:40;101750.75;;;6.24;100.00
51468;BME280;37545;45.302;-122.946;2022-11-25T03:29:09;101750.00;;;6.25;100.00
51468;BME280;37545;45.302;-122.946;2022-11-25T03:31:39;101746.72;;;6.28;100.00
51468;BME280;37545;45.302;-122.946;2022-11-25T03:34:10;101753.03;;;6.33;100.00
51468;BME280;37545;45.302;-122.946;2022-11-25T03:36:39;101759.16;;;6.35;100.00
51468;BME280;37545;45.302;-122.946;2022-11-25T03:39:07;101755.78;;;6.36;100.00
51468;BME280;37545;45.302;-122.946;2022-11-25T03:41:36;101761.81;;;6.37;100.00
51468;BME280;37545;45.302;-122.946;2022-11-25T03:44:05;101757.56;;;6.37;100.00
51468;BME280;37545;45.302;-122.946;2022-11-25T03:46:48;101762.00;;;6.40;100.00
51468;BME280;37545;45.302;-122.946;2022-11-25T03:49:17;101766.44;;;6.42;100.00
51468;BME280;37545;45.302;-122.946;2022-11-25T03:51:48;101759.72;;;6.44;100.00
51468;BME280;37545;45.302;-122.946;2022-11-25T03:54:19;101761.13;;;6.39;100.00
51468;BME280;37545;45.302;-122.946;2022-11-25T03:56:47;101769.50;;;6.37;100.00
51468;BME280;37545;45.302;-122.946;2022-11-25T03:59:16;101769.50;;;6.37;100.00
51468;BME280;37545;45.302;-122.946;2022-11-25T04:01:45;101770.13;;;6.33;100.00
51468;BME280;37545;45.302;-122.946;2022-11-25T04:04:23;101775.97;;;6.30;100.00
51468;BME280;37545;45.302;-122.946;2022-11-25T04:06:52;101779.13;;;6.26;100.00
51468;BME280;37545;45.302;-122.946;2022-11-25T04:09:21;101778.34;;;6.14;100.00
51468;BME280;37545;45.302;-122.946;2022-11-25T04:11:51;101792.41;;;6.05;100.00
51468;BME280;37545;45.302;-122.946;2022-11-25T04:14:36;101785.56;;;6.06;100.00
51468;BME280;37545;45.302;-122.946;2022-11-25T04:17:05;101788.31;;;6.09;100.00
51468;BME280;37545;45.302;-122.946;2022-11-25T04:19:35;101786.56;;;6.08;100.00
51468;BME280;37545;45.302;-122.946;2022-11-25T04:22:04;101780.44;;;6.06;100.00
51468;BME280;37545;45.302;-122.946;2022-11-25T04:24:33;101783.09;;;6.07;100.00
51468;BME280;37545;45.302;-122.946;2022-11-25T04:27:02;101788.44;;;6.11;100.00
51468;BME280;37545;45.302;-122.946;2022-11-25T04:29:31;101782.00;;;6.17;100.00
51468;BME280;37545;45.302;-122.946;2022-11-25T04:32:00;101786.34;;;6.18;100.00
51468;BME280;37545;45.302;-122.946;2022-11-25T04:34:28;101788.31;;;6.22;100.00
51468;BME280;37545;45.302;-122.946;2022-11-25T04:36:59;101788.72;;;6.28;100.00
51468;BME280;37545;45.302;-122.946;2022-11-25T04:39:29;101796.72;;;6.33;100.00
51468;BME280;37545;45.302;-122.946;2022-11-25T04:41:57;101802.94;;;6.37;100.00
51468;BME280;37545;45.302;-122.946;2022-11-25T04:44:39;101808.97;;;6.37;100.00
51468;BME280;37545;45.302;-122.946;2022-11-25T04:47:08;101815.19;;;6.41;100.00
51468;BME280;37545;45.302;-122.946;2022-11-25T04:49:37;101811.75;;;6.40;100.00
51468;BME280;37545;45.302;-122.946;2022-11-25T04:52:07;101816.06;;;6.41;100.00
51468;BME280;37545;45.302;-122.946;2022-11-25T04:54:36;101805.78;;;6.41;100.00
51468;BME280;37545;45.302;-122.946;2022-11-25T04:57:05;101798.88;;;6.40;100.00
51468;BME280;37545;45.302;-122.946;2022-11-25T04:59:34;101800.66;;;6.41;100.00
51468;BME280;37545;45.302;-122.946;2022-11-25T05:02:13;101794.56;;;6.39;100.00
51468;BME280;37545;45.302;-122.946;2022-11-25T05:04:43;101797.13;;;6.39;100.00
51468;BME280;37545;45.302;-122.946;2022-11-25T05:07:15;101796.13;;;6.37;100.00
51468;BME280;37545;45.302;-122.946;2022-11-25T05:09:45;101798.69;;;6.37;100.00
51468;BME280;37545;45.302;-122.946;2022-11-25T05:12:15;101797.00;;;6.38;100.00
51468;BME280;37545;45.302;-122.946;2022-11-25T05:14:44;101807.41;;;6.39;100.00
51468;BME280;37545;45.302;-122.946;2022-11-25T05:17:15;101797.13;;;6.39;100.00
51468;BME280;37545;45.302;-122.946;2022-11-25T05:19:44;101804.03;;;6.40;100.00
51468;BME280;37545;45.302;-122.946;2022-11-25T05:22:15;101803.22;;;6.41;100.00
51468;BME280;37545;45.302;-122.946;2022-11-25T05:24:45;101807.59;;;6.42;100.00
51468;BME280;37545;45.302;-122.946;2022-11-25T05:27:14;101804.03;;;6.40;100.00
51468;BME280;37545;45.302;-122.946;2022-11-25T05:29:43;101804.03;;;6.40;100.00
51468;BME280;37545;45.302;-122.946;2022-11-25T05:32:12;101804.13;;;6.42;100.00
51468;BME280;37545;45.302;-122.946;2022-11-25T05:34:41;101800.66;;;6.41;100.00
51468;BME280;37545;45.302;-122.946;2022-11-25T05:37:13;101808.34;;;6.41;100.00
51468;BME280;37545;45.302;-122.946;2022-11-25T05:39:42;101805.78;;;6.41;100.00
51468;BME280;37545;45.302;-122.946;2022-11-25T05:42:11;101804.22;;;6.43;100.00
51468;BME280;37545;45.302;-122.946;2022-11-25T05:44:39;101799.88;;;6.42;100.00
51468;BME280;37545;45.302;-122.946;2022-11-25T05:47:08;101803.22;;;6.41;100.00
51468;BME280;37545;45.302;-122.946;2022-11-25T05:49:37;101786.13;;;6.42;100.00
51468;BME280;37545;45.302;-122.946;2022-11-25T05:52:05;101791.28;;;6.42;100.00
51468;BME280;37545;45.302;-122.946;2022-11-25T05:54:36;101793.56;;;6.37;100.00
51468;BME280;37545;45.302;-122.946;2022-11-25T05:57:04;101781.78;;;6.27;100.00
51468;BME280;37545;45.302;-122.946;2022-11-25T05:59:33;101770.03;;;6.18;100.00
51468;BME280;37545;45.302;-122.946;2022-11-25T06:02:02;101780.53;;;6.21;100.00
51468;BME280;37545;45.302;-122.946;2022-11-25T06:04:30;101777.16;;;6.22;100.00
51468;BME280;37545;45.302;-122.946;2022-11-25T06:06:59;101781.50;;;6.23;100.00
51468;BME280;37545;45.302;-122.946;2022-11-25T06:09:28;101781.59;;;6.24;100.00
51468;BME280;37545;45.302;-122.946;2022-11-25T06:11:59;101779.53;;;6.19;100.00
51468;BME280;37545;45.302;-122.946;2022-11-25T06:14:27;101780.31;;;6.18;100.00
51468;BME280;37545;45.302;-122.946;2022-11-25T06:16:56;101776.41;;;6.10;100.00
51468;BME280;37545;45.302;-122.946;2022-11-25T06:19:25;101790.72;;;6.06;100.00
51468;BME280;37545;45.302;-122.946;2022-11-25T06:21:53;101801.88;;;6.06;100.00
51468;BME280;37545;45.302;-122.946;2022-11-25T06:24:22;101805.94;;;6.03;100.00
51468;BME280;37545;45.302;-122.946;2022-11-25T06:26:51;101810.38;;;6.05;100.00
51468;BME280;37545;45.302;-122.946;2022-11-25T06:29:21;101812.16;;;6.06;100.00
51468;BME280;37545;45.302;-122.946;2022-11-25T06:31:50;101808.81;;;6.07;100.00
51468;BME280;37545;45.302;-122.946;2022-11-25T06:34:18;101806.53;;;6.12;100.00
51468;BME280;37545;45.302;-122.946;2022-11-25T06:36:48;101805.44;;;6.08;100.00
51468;BME280;37545;45.302;-122.946;2022-11-25T06:39:17;101802.09;;;6.10;100.00
51468;BME280;37545;45.302;-122.946;2022-11-25T06:41:46;101809.50;;;6.05;100.00
51468;BME280;37545;45.302;-122.946;2022-11-25T06:44:15;101798.63;;;5.96;100.00
51468;BME280;37545;45.302;-122.946;2022-11-25T06:46:45;101802.75;;;5.94;100.00
51468;BME280;37545;45.302;-122.946;2022-11-25T06:49:14;101818.03;;;5.92;100.00
51468;BME280;37545;45.302;-122.946;2022-11-25T06:51:43;101830.34;;;5.96;100.00
51468;BME280;37545;45.302;-122.946;2022-11-25T06:54:11;101829.53;;;5.97;100.00
51468;BME280;37545;45.302;-122.946;2022-11-25T06:56:40;101828.66;;;5.97;100.00
51468;BME280;37545;45.302;-122.946;2022-11-25T06:59:08;101825.28;;;5.98;100.00
51468;BME280;37545;45.302;-122.946;2022-11-25T07:01:37;101835.66;;;5.99;100.00
51468;BME280;37545;45.302;-122.946;2022-11-25T07:04:07;101830.72;;;6.02;100.00
51468;BME280;37545;45.302;-122.946;2022-11-25T07:06:36;101824.09;;;6.06;100.00
51468;BME280;37545;45.302;-122.946;2022-11-25T07:09:05;101802.84;;;5.95;100.00
51468;BME280;37545;45.302;-122.946;2022-11-25T07:11:35;101819.25;;;5.97;100.00
51468;BME280;37545;45.302;-122.946;2022-11-25T07:14:06;101815.69;;;5.95;100.00
51468;BME280;37545;45.302;-122.946;2022-11-25T07:16:37;101814.66;;;5.93;100.00
51468;BME280;37545;45.302;-122.946;2022-11-25T07:19:09;101806.00;;;5.91;100.00
51468;BME280;37545;45.302;-122.946;2022-11-25T07:21:38;101797.31;;;5.89;100.00
51468;BME280;37545;45.302;-122.946;2022-11-25T07:24:08;101797.88;;;5.85;100.00
51468;BME280;37545;45.302;-122.946;2022-11-25T07:26:39;101802.03;;;5.83;100.00
51468;BME280;37545;45.302;-122.946;2022-11-25T07:29:09;101804.09;;;5.75;100.00
51468;BME280;37545;45.302;-122.946;2022-11-25T07:31:39;101797.09;;;5.73;100.00
51468;BME280;37545;45.302;-122.946;2022-11-25T07:34:12;101799.66;;;5.73;100.00
51468;BME280;37545;45.302;-122.946;2022-11-25T07:36:43;101797.09;;;5.73;100.00
51468;BME280;37545;45.302;-122.946;2022-11-25T07:39:13;101793.84;;;5.75;100.00
51468;BME280;37545;45.302;-122.946;2022-11-25T07:41:42;101790.47;;;5.76;100.00
51468;BME280;37545;45.302;-122.946;2022-11-25T07:44:12;101806.28;;;5.82;100.00
51468;BME280;37545;45.302;-122.946;2022-11-25T07:46:42;101801.91;;;5.81;100.00
51468;BME280;37545;45.302;-122.946;2022-11-25T07:49:14;101792.84;;;5.73;100.00
51468;BME280;37545;45.302;-122.946;2022-11-25T07:51:47;101795.00;;;5.67;100.00
51468;BME280;37545;45.302;-122.946;2022-11-25T07:54:16;101793.44;;;5.69;100.00
51468;BME280;37545;45.302;-122.946;2022-11-25T07:56:46;101791.97;;;5.73;100.00
51468;BME280;37545;45.302;-122.946;2022-11-25T07:59:17;101794.72;;;5.76;100.00
51468;BME280;37545;45.302;-122.946;2022-11-25T08:01:47;101795.03;;;5.80;100.00
51468;BME280;37545;45.302;-122.946;2022-11-25T08:04:18;101793.44;;;5.82;100.00
51468;BME280;37545;45.302;-122.946;2022-11-25T08:06:48;101792.75;;;5.85;100.00
51468;BME280;37545;45.302;-122.946;2022-11-25T08:09:18;101792.94;;;5.88;100.00
51468;BME280;37545;45.302;-122.946;2022-11-25T08:11:48;101782.88;;;5.91;100.00
51468;BME280;37545;45.302;-122.946;2022-11-25T08:14:17;101781.69;;;5.86;100.00
51468;BME280;37545;45.302;-122.946;2022-11-25T08:16:46;101784.63;;;5.79;100.00
51468;BME280;37545;45.302;-122.946;2022-11-25T08:19:17;101784.63;;;5.79;100.00
51468;BME280;37545;45.302;-122.946;2022-11-25T08:21:46;101779.13;;;5.73;100.00
51468;BME280;37545;45.302;-122.946;2022-11-25T08:24:16;101788.31;;;5.82;100.00
51468;BME280;37545;45.302;-122.946;2022-11-25T08:26:45;101787.72;;;5.86;100.00
51468;BME280;37545;45.302;-122.946;2022-11-25T08:29:15;101783.66;;;5.90;100.00
51468;BME280;37545;45.302;-122.946;2022-11-25T08:31:43;101789.78;;;5.92;100.00
51468;BME280;37545;45.302;-122.946;2022-11-25T08:34:18;101788.97;;;5.93;100.00
51468;BME280;37545;45.302;-122.946;2022-11-25T08:36:47;101783.66;;;5.90;100.00
51468;BME280;37545;45.302;-122.946;2022-11-25T08:39:17;101787.22;;;5.92;100.00
51468;BME280;37545;45.302;-122.946;2022-11-25T08:41:46;101783.84;;;5.93;100.00
51468;BME280;37545;45.302;-122.946;2022-11-25T08:44:14;101795.03;;;5.94;100.00
51468;BME280;37545;45.302;-122.946;2022-11-25T08:46:52;101805.41;;;5.95;100.00
51468;BME280;37545;45.302;-122.946;2022-11-25T08:49:23;101822.63;;;5.96;100.00
51468;BME280;37545;45.302;-122.946;2022-11-25T08:51:52;101832.09;;;5.97;100.00
51468;BME280;37545;45.302;-122.946;2022-11-25T08:54:27;101831.34;;;5.98;100.00
51468;BME280;37545;45.302;-122.946;2022-11-25T08:56:56;101828.94;;;6.01;100.00
51468;BME280;37545;45.302;-122.946;2022-11-25T08:59:26;101836.78;;;6.03;100.00
51468;BME280;37545;45.302;-122.946;2022-11-25T09:01:54;101832.41;;;6.02;100.00
51468;BME280;37545;45.302;-122.946;2022-11-25T09:04:25;101828.16;;;6.02;100.00
51468;BME280;37545;45.302;-122.946;2022-11-25T09:06:54;101812.66;;;6.01;100.00
51468;BME280;37545;45.302;-122.946;2022-11-25T09:09:22;101826.38;;;6.01;100.00
51468;BME280;37545;45.302;-122.946;2022-11-25T09:11:51;101819.56;;;6.02;100.00
51468;BME280;37545;45.302;-122.946;2022-11-25T09:14:20;101826.38;;;6.01;100.00
51468;BME280;37545;45.302;-122.946;2022-11-25T09:16:48;101833.22;;;6.01;100.00
51468;BME280;37545;45.302;-122.946;2022-11-25T09:19:18;101841.78;;;6.01;100.00
51468;BME280;37545;45.302;-122.946;2022-11-25T09:21:48;101822.94;;;6.01;100.00
51468;BME280;37545;45.302;-122.946;2022-11-25T09:24:17;101816.22;;;6.03;100.00
51468;BME280;37545;45.302;-122.946;2022-11-25T09:26:45;101813.53;;;6.01;100.00
51468;BME280;37545;45.302;-122.946;2022-11-25T09:29:14;101810.16;;;6.02;100.00
51468;BME280;37545;45.302;-122.946;2022-11-25T09:31:43;101806.63;;;6.00;100.00
51468;BME280;37545;45.302;-122.946;2022-11-25T09:34:12;101809.19;;;6.00;100.00
51468;BME280;37545;45.302;-122.946;2022-11-25T09:36:41;101797.94;;;5.98;100.00
51468;BME280;37545;45.302;-122.946;2022-11-25T09:39:12;101806.53;;;5.99;100.00
51468;BME280;37545;45.302;-122.946;2022-11-25T09:41:54;101812.44;;;5.98;100.00
51468;BME280;37545;45.302;-122.946;2022-11-25T09:44:50;101813.34;;;5.98;100.00
51468;BME280;37545;45.302;-122.946;2022-11-25T09:47:45;101813.94;;;5.94;100.00
51468;BME280;37545;45.302;-122.946;2022-11-25T09:50:22;101833.47;;;5.92;100.00
51468;BME280;37545;45.302;-122.946;2022-11-25T09:53:10;101846.09;;;5.89;100.00
51468;BME280;37545;45.302;-122.946;2022-11-25T09:55:54;101858.94;;;5.89;100.00
51468;BME280;37545;45.302;-122.946;2022-11-25T09:58:30;101855.47;;;5.88;100.00
51468;BME280;37545;45.302;-122.946;2022-11-25T10:01:03;101849.16;;;5.83;100.00
51468;BME280;37545;45.302;-122.946;2022-11-25T10:03:36;101843.63;;;5.77;100.00
51468;BME280;37545;45.302;-122.946;2022-11-25T10:06:15;101838.50;;;5.77;100.00
51468;BME280;37545;45.302;-122.946;2022-11-25T10:08:47;101839.38;;;5.78;100.00
51468;BME280;37545;45.302;-122.946;2022-11-25T10:11:25;101841.81;;;5.76;100.00
51468;BME280;37545;45.302;-122.946;2022-11-25T10:13:58;101848.66;;;5.76;100.00
51468;BME280;37545;45.302;-122.946;2022-11-25T10:16:34;101849.41;;;5.75;100.00
51468;BME280;37545;45.302;-122.946;2022-11-25T10:19:09;101844.28;;;5.75;100.00
51468;BME280;37545;45.302;-122.946;2022-11-25T10:21:38;101841.72;;;5.75;100.00
51468;BME280;37545;45.302;-122.946;2022-11-25T10:24:12;101831.44;;;5.75;100.00
51468;BME280;37545;45.302;-122.946;2022-11-25T10:26:47;101809.13;;;5.74;100.00
51468;BME280;37545;45.302;-122.946;2022-11-25T10:29:23;101823.75;;;5.75;100.00
51468;BME280;37545;45.302;-122.946;2022-11-25T10:32:14;101828.09;;;5.76;100.00
51468;BME280;37545;45.302;-122.946;2022-11-25T10:34:50;101828.22;;;5.77;100.00
51468;BME280;37545;45.302;-122.946;2022-11-25T10:37:25;101832.44;;;5.77;100.00
51468;BME280;37545;45.302;-122.946;2022-11-25T10:39:55;101820.00;;;5.70;100.00
51468;BME280;37545;45.302;-122.946;2022-11-25T10:42:26;101840.16;;;5.77;100.00
51468;BME280;37545;45.302;-122.946;2022-11-25T10:44:58;101829.88;;;5.77;100.00
51468;BME280;37545;45.302;-122.946;2022-11-25T10:47:34;101839.25;;;5.76;100.00
51468;BME280;37545;45.302;-122.946;2022-11-25T10:50:11;101850.41;;;5.77;100.00
51468;BME280;37545;45.302;-122.946;2022-11-25T10:52:47;101857.25;;;5.76;100.00
51468;BME280;37545;45.302;-122.946;2022-11-25T10:55:19;101862.38;;;5.76;100.00
51468;BME280;37545;45.302;-122.946;2022-11-25T10:57:51;101854.56;;;5.75;100.00
51468;BME280;37545;45.302;-122.946;2022-11-25T11:00:31;101864.63;;;5.72;100.00
51468;BME280;37545;45.302;-122.946;2022-11-25T11:03:12;101854.94;;;5.67;100.00
51468;BME280;37545;45.302;-122.946;2022-11-25T11:05:46;101846.84;;;5.61;100.00
51468;BME280;37545;45.302;-122.946;2022-11-25T11:08:18;101847.44;;;5.57;100.00
51468;BME280;37545;45.302;-122.946;2022-11-25T11:11:08;101848.81;;;5.52;100.00
51468;BME280;37545;45.302;-122.946;2022-11-25T11:13:39;101847.38;;;5.44;100.00
51468;BME280;37545;45.302;-122.946;2022-11-25T11:16:22;101842.06;;;5.41;100.00
51468;BME280;37545;45.302;-122.946;2022-11-25T11:18:54;101847.88;;;5.38;100.00
51468;BME280;37545;45.302;-122.946;2022-11-25T11:21:28;101849.53;;;5.38;100.00
51468;BME280;37545;45.302;-122.946;2022-11-25T11:23:57;101849.44;;;5.36;100.00
51468;BME280;37545;45.302;-122.946;2022-11-25T11:26:28;101844.31;;;5.36;100.00
51468;BME280;37545;45.302;-122.946;2022-11-25T11:29:01;101837.28;;;5.34;100.00
51468;BME280;37545;45.302;-122.946;2022-11-25T11:31:33;101830.72;;;5.25;100.00
51468;BME280;37545;45.302;-122.946;2022-11-25T11:34:23;101843.25;;;5.21;100.00
51468;BME280;37545;45.302;-122.946;2022-11-25T11:37:14;101826.75;;;5.17;100.00
51468;BME280;37545;45.302;-122.946;2022-11-25T11:39:57;101824.78;;;5.13;100.00
51468;BME280;37545;45.302;-122.946;2022-11-25T11:42:37;101824.53;;;5.10;100.00
51468;BME280;37545;45.302;-122.946;2022-11-25T11:45:21;101835.03;;;5.13;100.00
51468;BME280;37545;45.302;-122.946;2022-11-25T11:48:03;101842.13;;;5.17;100.00
51468;BME280;37545;45.302;-122.946;2022-11-25T11:50:40;101840.38;;;5.16;100.00
51468;BME280;37545;45.302;-122.946;2022-11-25T11:53:17;101845.50;;;5.16;100.00
51468;BME280;37545;45.302;-122.946;2022-11-25T11:55:57;101827.78;;;5.08;100.00
51468;BME280;37545;45.302;-122.946;2022-11-25T11:58:38;101843.31;;;5.09;100.00
51468;BME280;37545;45.302;-122.946;2022-11-25T12:01:23;101837.06;;;5.06;100.00
51468;BME280;37545;45.302;-122.946;2022-11-25T12:03:58;101839.31;;;5.01;100.00
51468;BME280;37545;45.302;-122.946;2022-11-25T12:06:30;101849.56;;;5.01;100.00
51468;BME280;37545;45.302;-122.946;2022-11-25T12:09:00;101851.38;;;5.02;100.00
51468;BME280;37545;45.302;-122.946;2022-11-25T12:11:35;101863.94;;;4.99;100.00
51468;BME280;37545;45.302;-122.946;2022-11-25T12:14:16;101857.63;;;4.94;100.00
51468;BME280;37545;45.302;-122.946;2022-11-25T12:16:54;101861.00;;;4.93;100.00
51468;BME280;37545;45.302;-122.946;2022-11-25T12:19:29;101859.09;;;4.90;100.00
51468;BME280;37545;45.302;-122.946;2022-11-25T12:22:04;101861.53;;;4.89;100.00
51468;BME280;37545;45.302;-122.946;2022-11-25T12:24:39;101865.88;;;4.90;100.00
51468;BME280;37545;45.302;-122.946;2022-11-25T12:27:14;101863.44;;;4.91;100.00
51468;BME280;37545;45.302;-122.946;2022-11-25T12:29:47;101867.69;;;4.91;100.00
51468;BME280;37545;45.302;-122.946;2022-11-25T12:35:30;101868.69;;;4.93;100.00
51468;BME280;37545;45.302;-122.946;2022-11-25T12:38:08;101867.00;;;4.93;100.00
51468;BME280;37545;45.302;-122.946;2022-11-25T12:40:46;101862.56;;;4.91;100.00
51468;BME280;37545;45.302;-122.946;2022-11-25T12:43:26;101863.31;;;4.90;100.00
51468;BME280;37545;45.302;-122.946;2022-11-25T12:46:12;101862.56;;;4.91;100.00
51468;BME280;37545;45.302;-122.946;2022-11-25T12:48:43;101850.50;;;4.90;100.00
51468;BME280;37545;45.302;-122.946;2022-11-25T12:51:23;101853.19;;;4.91;100.00